Aeroporto :
LOGIN :

Iscrizione | Disclaimer

   EN    FR    IT 

 










Sommario :    VFR   VFR Marginale   IFR   IFR Intensivo   IFR Molto Intensivo
Visibilità : 
Base nubi : 
>= 8 km
>= 3000ft
5 / 8 km
1000 / 3000 ft
1500m / 5 km
500 / 1000 ft
800 / 1500m
200 / 500 ft
< 800m
< 200 ft
Simboli :   Temporali  Nebbia  Neve Forte  Precipitazioni Forti  Vento > 20 kt
SIGMETs :   Varie  Temporali  Ghiacco  Turbolenza  Onda orograficha  Ceneri Vulcaniche







- Altitudine del aeroporto : 144 ft
- Codice IATA : PGF
- Carte del aeroporto


LFMP - Perpignan

ULTIMO METAR :
  • 172230Z AUTO 30004KT 240V350 CAVOK 07/07 Q1023

METARs OBSOLETI :
  • 172200Z AUTO 34003KT CAVOK 08/07 Q1023
  • 172130Z AUTO 36004KT 310V080 CAVOK 08/06 Q1023 NOSIG
  • 172100Z AUTO 32006KT CAVOK 09/08 Q1023 NOSIG
  • 172030Z AUTO 32003KT CAVOK 08/07 Q1023 NOSIG
  • 172000Z AUTO 34004KT CAVOK 09/07 Q1023 NOSIG

TAF TAF LFMP
Valido dal 17 a 15 ore il 18 a 15 ore UTC


171400Z 1715/1815 12010KT CAVOK
BECMG 1716/1718 VRB05KT
BECMG 1813/1815 12012KT
ATIS : +33 4 68 63 75 12
Nessun NOTAM noto per questo aeroporto.



MetMap, La meteo Aeronautica in un colpo d'occhio ! - Copyright ORBIFLY Dicembre 2007 - Disclaimer

ORBIFLY MET'MAP TEAM :

Programmazione e sviluppo : Alexandra Zaïnal
Concezione e sviluppo : Baudouin d'Aumeries
Co-Programmazione e sviluppo : Marc-Olivier Méhu
Supporto tecnico e logistico : Manuel Goepfert
Aiuto per la traduzione : Arnaldo La Scala

Contatto : metmap@orbifly.com




FONTI E CREDITI :

   NOAA